Time;durP1;ratioP1;P1;durP2;ratioP2;P2;SDS_P1;SDS_P2;PMS_P1;PMS_P2;Temp;Humidity;BMP_temperature;BMP_pressure;BME280_temperature;BME280_humidity;BME280_pressure;Samples;Min_cycle;Max_cycle;Signal;HPM_P1;HPM_P2
2023/11/04 00:00:35;;;;;;;9.17;2.63;;;10.90;99.90;;;;;;7289510;19;20220;-88
2023/11/04 00:03:01;;;;;;;6.33;3.10;;;10.90;99.90;;;;;;7292030;19;20192;-90
2023/11/04 00:05:29;;;;;;;11.43;3.50;;;10.90;99.90;;;;;;7291540;19;20196;-89
2023/11/04 00:07:55;;;;;;;8.90;2.67;;;10.90;99.90;;;;;;7289928;19;20213;-88
2023/11/04 00:10:23;;;;;;;8.17;2.90;;;11.00;99.90;;;;;;7289282;19;20231;-88
2023/11/04 00:12:50;;;;;;;6.67;3.00;;;11.00;99.90;;;;;;7290039;19;20672;-89
2023/11/04 00:15:16;;;;;;;8.57;3.10;;;11.10;99.90;;;;;;7288785;19;20567;-88
2023/11/04 00:17:43;;;;;;;7.60;2.70;;;10.90;99.90;;;;;;7290594;19;20184;-87
2023/11/04 00:20:09;;;;;;;7.27;3.00;;;10.80;99.90;;;;;;7310985;19;20179;-87
2023/11/04 00:22:34;;;;;;;9.43;3.00;;;10.80;99.90;;;;;;7301189;19;20243;-88
2023/11/04 00:25:08;;;;;;;8.27;3.00;;;10.80;99.90;;;;;;7287735;19;20327;-88
2023/11/04 00:27:37;;;;;;;8.37;3.10;;;10.80;99.90;;;;;;7289820;19;20538;-88
2023/11/04 00:30:03;;;;;;;9.17;3.20;;;10.80;99.90;;;;;;7289692;19;20196;-89
2023/11/04 00:32:29;;;;;;;9.40;2.73;;;10.90;99.90;;;;;;7290758;19;20990;-90
2023/11/04 00:34:55;;;;;;;7.83;2.97;;;10.90;99.90;;;;;;7290491;19;20199;-88
2023/11/04 00:37:21;;;;;;;6.67;2.90;;;11.00;99.90;;;;;;7290514;19;20196;-87
2023/11/04 00:39:47;;;;;;;6.83;2.97;;;10.90;99.90;;;;;;7290321;19;20316;-88
2023/11/04 00:42:13;;;;;;;8.17;3.00;;;10.80;99.90;;;;;;7290198;19;20200;-88
2023/11/04 00:44:39;;;;;;;7.20;3.17;;;10.90;99.90;;;;;;7308054;19;20187;-89
2023/11/04 00:47:05;;;;;;;5.80;2.93;;;10.90;99.90;;;;;;7302027;19;20654;-89
2023/11/04 00:49:30;;;;;;;7.33;3.33;;;10.90;99.90;;;;;;7288593;19;21119;-89
2023/11/04 00:51:56;;;;;;;8.13;3.30;;;10.90;99.90;;;;;;7286839;19;20245;-89
2023/11/04 00:54:22;;;;;;;9.37;3.10;;;10.90;99.90;;;;;;7289491;19;20657;-89
2023/11/04 00:56:48;;;;;;;8.87;3.50;;;10.90;99.90;;;;;;7291925;19;20189;-91
2023/11/04 00:59:14;;;;;;;10.03;3.20;;;10.90;99.90;;;;;;7293291;19;20200;-92
2023/11/04 01:01:41;;;;;;;9.93;3.33;;;10.90;99.90;;;;;;7302234;19;20264;-90
2023/11/04 01:04:07;;;;;;;7.90;2.93;;;11.00;99.90;;;;;;7314879;19;20194;-89
2023/11/04 01:06:32;;;;;;;10.27;3.00;;;11.10;99.90;;;;;;7292086;19;20203;-88
2023/11/04 01:08:58;;;;;;;12.20;3.13;;;11.00;99.90;;;;;;7292062;19;20218;-89
2023/11/04 01:11:24;;;;;;;7.10;2.70;;;11.10;99.90;;;;;;7288904;19;20590;-88
2023/11/04 01:13:50;;;;;;;9.23;2.90;;;11.00;99.90;;;;;;7287862;19;20541;-89
2023/11/04 01:16:16;;;;;;;7.43;2.90;;;11.00;99.90;;;;;;7288021;19;20195;-88
2023/11/04 01:18:41;;;;;;;8.07;3.00;;;11.00;99.90;;;;;;7287569;19;20202;-89
2023/11/04 01:21:07;;;;;;;8.23;2.97;;;10.90;99.90;;;;;;7309960;19;20238;-88
2023/11/04 01:23:35;;;;;;;8.23;3.17;;;11.00;99.90;;;;;;7288352;19;20195;-89
2023/11/04 01:26:01;;;;;;;9.47;3.30;;;11.10;99.90;;;;;;7286825;19;20673;-89
2023/11/04 01:28:30;;;;;;;8.00;2.90;;;11.10;99.90;;;;;;7287814;19;20562;-88
2023/11/04 01:30:56;;;;;;;7.33;3.00;;;11.00;99.90;;;;;;7289487;19;20235;-88
2023/11/04 01:33:22;;;;;;;10.17;3.27;;;11.00;99.90;;;;;;7285426;19;20189;-88
2023/11/04 01:35:48;;;;;;;12.03;3.43;;;10.90;99.90;;;;;;7288033;19;20872;-88
2023/11/04 01:38:13;;;;;;;8.97;2.97;;;10.80;99.90;;;;;;7287990;19;20187;-88
2023/11/04 01:40:39;;;;;;;9.40;3.77;;;10.80;99.90;;;;;;7303405;19;20188;-89
2023/11/04 01:43:05;;;;;;;9.23;3.50;;;10.70;99.90;;;;;;7303392;19;20260;-88
2023/11/04 01:45:31;;;;;;;11.33;3.70;;;10.60;99.90;;;;;;7285437;19;20196;-88
2023/11/04 01:47:57;;;;;;;12.20;3.73;;;10.60;99.90;;;;;;7286604;19;20196;-89
2023/11/04 01:50:22;;;;;;;9.83;3.60;;;10.60;99.90;;;;;;7286027;19;20218;-89
2023/11/04 01:52:48;;;;;;;10.57;3.90;;;10.60;99.90;;;;;;7287213;19;20192;-88
2023/11/04 01:55:14;;;;;;;11.33;3.53;;;10.70;99.90;;;;;;7289632;19;20200;-88
2023/11/04 01:57:40;;;;;;;10.80;4.67;;;10.70;99.90;;;;;;7293978;19;20188;-91
2023/11/04 02:00:08;;;;;;;15.53;4.20;;;10.60;99.90;;;;;;7312449;19;20261;-92
2023/11/04 02:02:41;;;;;;;10.33;4.13;;;10.60;99.90;;;;;;7276516;19;20195;-91
2023/11/04 02:05:08;;;;;;;12.80;4.00;;;10.70;99.90;;;;;;7309537;19;20196;-88
2023/11/04 02:07:34;;;;;;;8.70;3.70;;;10.80;99.90;;;;;;7288504;19;20639;-89
2023/11/04 02:10:00;;;;;;;8.73;3.97;;;10.80;99.90;;;;;;7288059;19;20209;-88
2023/11/04 02:12:25;;;;;;;13.73;4.20;;;10.80;99.90;;;;;;7286628;19;20201;-88
2023/11/04 02:14:53;;;;;;;13.77;4.50;;;10.90;99.90;;;;;;7287741;19;20602;-88
2023/11/04 02:17:19;;;;;;;14.87;4.13;;;10.90;99.90;;;;;;7288060;19;20206;-89
2023/11/04 02:19:45;;;;;;;14.83;5.00;;;10.90;99.90;;;;;;7288408;19;20189;-88
2023/11/04 02:22:11;;;;;;;13.47;4.40;;;10.90;99.90;;;;;;7286579;19;20549;-88
2023/11/04 02:24:37;;;;;;;19.00;4.30;;;10.80;99.90;;;;;;7308615;19;20185;-88
2023/11/04 02:27:03;;;;;;;13.00;4.20;;;10.80;99.90;;;;;;7286691;19;20253;-88
2023/11/04 02:29:30;;;;;;;11.27;4.10;;;10.80;99.90;;;;;;7287706;19;20280;-89
2023/11/04 02:31:56;;;;;;;10.43;4.10;;;10.80;99.90;;;;;;7287723;19;20529;-89
2023/11/04 02:34:22;;;;;;;12.20;4.20;;;10.70;99.90;;;;;;7287207;19;20255;-89
2023/11/04 02:36:47;;;;;;;11.67;3.83;;;10.80;99.90;;;;;;7286994;19;20196;-89
2023/11/04 02:39:13;;;;;;;14.20;3.90;;;10.80;99.90;;;;;;7287577;19;20187;-89
2023/11/04 02:41:39;;;;;;;10.87;3.90;;;10.90;99.90;;;;;;7303941;19;20195;-90
2023/11/04 02:44:05;;;;;;;12.70;3.67;;;10.80;99.90;;;;;;7299286;19;20217;-88
2023/11/04 02:46:31;;;;;;;11.20;3.70;;;10.90;99.90;;;;;;7287283;19;20585;-89
2023/11/04 02:48:57;;;;;;;14.77;4.07;;;10.90;99.90;;;;;;7288146;19;20263;-88
2023/11/04 02:51:22;;;;;;;14.43;3.97;;;10.90;99.90;;;;;;7286994;19;20198;-89
2023/11/04 02:53:48;;;;;;;12.57;4.00;;;11.00;99.90;;;;;;7287476;19;20196;-88
2023/11/04 02:56:15;;;;;;;13.97;4.37;;;11.00;99.90;;;;;;7285048;19;20191;-89
2023/11/04 02:58:41;;;;;;;11.87;3.97;;;11.00;99.90;;;;;;7292264;19;20188;-88
2023/11/04 03:01:07;;;;;;;12.63;4.00;;;11.00;99.90;;;;;;7310467;19;20192;-88
2023/11/04 03:03:32;;;;;;;11.37;3.80;;;11.00;99.90;;;;;;7285641;19;20233;-88
2023/11/04 03:05:59;;;;;;;11.47;3.97;;;11.00;99.90;;;;;;7286076;19;20203;-89
2023/11/04 03:08:26;;;;;;;12.77;3.90;;;11.00;99.90;;;;;;7286795;19;20228;-89
2023/11/04 03:10:52;;;;;;;12.80;3.70;;;11.10;99.90;;;;;;7286635;19;20202;-89
2023/11/04 03:13:19;;;;;;;14.13;3.60;;;11.00;99.90;;;;;;7285955;19;20264;-88
2023/11/04 03:15:45;;;;;;;12.80;3.80;;;11.00;99.90;;;;;;7287093;19;20198;-89
2023/11/04 03:18:10;;;;;;;10.90;3.57;;;11.10;99.90;;;;;;7295682;19;20189;-89
2023/11/04 03:20:36;;;;;;;16.83;3.50;;;11.00;99.90;;;;;;7306429;19;20181;-88
2023/11/04 03:23:02;;;;;;;13.30;3.70;;;11.10;99.90;;;;;;7284261;19;20210;-89
2023/11/04 03:25:28;;;;;;;12.37;4.23;;;11.10;99.90;;;;;;7285248;19;20197;-89
2023/11/04 03:27:54;;;;;;;13.27;3.37;;;11.20;99.90;;;;;;7286673;19;20203;-88
2023/11/04 03:30:19;;;;;;;14.80;3.50;;;11.20;99.90;;;;;;7284250;19;20200;-89
2023/11/04 03:32:45;;;;;;;11.90;3.10;;;11.20;99.90;;;;;;7284079;19;20202;-89
2023/11/04 03:35:11;;;;;;;14.97;3.73;;;11.20;99.90;;;;;;7286092;19;20192;-88
2023/11/04 03:37:37;;;;;;;14.53;3.87;;;11.20;99.90;;;;;;7307797;19;20192;-89
2023/11/04 03:40:03;;;;;;;13.37;3.07;;;11.10;99.90;;;;;;7285057;19;20192;-89
2023/11/04 03:42:29;;;;;;;15.37;3.60;;;11.00;99.90;;;;;;7285087;19;20199;-88
2023/11/04 03:44:55;;;;;;;12.37;3.20;;;10.90;99.90;;;;;;7285868;19;20200;-89
2023/11/04 03:47:20;;;;;;;12.97;3.20;;;10.90;99.90;;;;;;7284489;19;20195;-89
2023/11/04 03:49:46;;;;;;;8.70;2.63;;;10.80;99.90;;;;;;7285499;19;20383;-89
2023/11/04 03:52:12;;;;;;;8.03;3.00;;;10.60;99.90;;;;;;7284508;19;20198;-89
2023/11/04 03:54:39;;;;;;;13.67;2.93;;;10.50;99.90;;;;;;7307875;19;20189;-89
2023/11/04 03:57:05;;;;;;;14.60;2.83;;;10.50;99.90;;;;;;7286368;19;20193;-89
2023/11/04 03:59:31;;;;;;;13.00;3.00;;;10.40;99.90;;;;;;7283601;19;20279;-89
2023/11/04 04:01:56;;;;;;;14.47;3.33;;;10.30;99.90;;;;;;7284838;19;20221;-89
2023/11/04 04:04:22;;;;;;;13.07;3.13;;;10.20;99.90;;;;;;7284259;19;20206;-88
2023/11/04 04:06:49;;;;;;;12.87;3.17;;;10.10;99.90;;;;;;7282568;19;20194;-89
2023/11/04 04:09:15;;;;;;;12.43;3.33;;;10.00;99.90;;;;;;7283697;19;20188;-88
2023/11/04 04:11:40;;;;;;;10.47;3.00;;;10.00;99.90;;;;;;7291628;19;20191;-89
2023/11/04 04:14:06;;;;;;;11.73;3.03;;;10.00;99.90;;;;;;7305890;19;20711;-89
2023/11/04 04:16:32;;;;;;;9.40;3.33;;;9.90;99.90;;;;;;7283737;19;20688;-89
2023/11/04 04:19:00;;;;;;;10.37;3.10;;;9.80;99.90;;;;;;7284501;19;20258;-88
2023/11/04 04:21:26;;;;;;;15.17;3.77;;;9.80;99.90;;;;;;7285551;19;20199;-88
2023/11/04 04:23:52;;;;;;;13.93;3.07;;;9.80;99.90;;;;;;7285061;19;20186;-89
2023/11/04 04:26:20;;;;;;;10.73;3.40;;;9.80;99.90;;;;;;7283434;19;20214;-89
2023/11/04 04:28:46;;;;;;;11.17;3.13;;;9.80;99.90;;;;;;7282714;19;20185;-89
2023/11/04 04:31:14;;;;;;;9.80;3.10;;;9.80;99.90;;;;;;7283933;19;20191;-89
2023/11/04 04:33:41;;;;;;;11.93;3.20;;;9.80;99.90;;;;;;7301756;19;20191;-89
2023/11/04 04:36:07;;;;;;;13.50;3.10;;;9.80;99.90;;;;;;7310056;19;20190;-88
2023/11/04 04:38:33;;;;;;;16.03;3.30;;;9.80;99.90;;;;;;7289680;19;20202;-89
2023/11/04 04:40:59;;;;;;;14.00;3.20;;;9.80;99.90;;;;;;7290482;19;20443;-89
2023/11/04 04:43:25;;;;;;;11.53;3.03;;;9.80;99.90;;;;;;7290840;19;20973;-88
2023/11/04 04:45:51;;;;;;;18.70;3.87;;;9.80;99.90;;;;;;7290369;19;20333;-88
2023/11/04 04:48:16;;;;;;;15.70;3.07;;;9.80;99.90;;;;;;7290343;19;20191;-88
2023/11/04 04:50:42;;;;;;;10.17;2.97;;;9.70;99.90;;;;;;7291186;19;20679;-89
2023/11/04 04:53:08;;;;;;;11.40;2.77;;;9.70;99.90;;;;;;7311940;19;20190;-88
2023/11/04 04:55:34;;;;;;;16.20;2.87;;;9.70;99.90;;;;;;7291571;19;20188;-88
2023/11/04 04:57:59;;;;;;;12.47;3.03;;;9.70;99.90;;;;;;7291844;19;20714;-88
2023/11/04 05:00:25;;;;;;;14.27;2.73;;;9.70;99.90;;;;;;7290671;19;20205;-88
2023/11/04 05:02:51;;;;;;;9.63;2.50;;;9.70;99.90;;;;;;7290572;19;20197;-88
2023/11/04 05:05:16;;;;;;;12.40;2.50;;;9.80;99.90;;;;;;7288703;19;20530;-88
2023/11/04 05:07:42;;;;;;;14.63;3.33;;;9.70;99.90;;;;;;7291061;19;20694;-89
2023/11/04 05:10:09;;;;;;;14.47;3.03;;;9.80;99.90;;;;;;7312199;19;20190;-88
2023/11/04 05:12:36;;;;;;;13.73;2.50;;;9.70;99.90;;;;;;7290927;19;20194;-88
2023/11/04 05:15:02;;;;;;;15.40;2.97;;;9.70;99.90;;;;;;7289775;19;20201;-88
2023/11/04 05:17:28;;;;;;;14.53;2.50;;;9.60;99.90;;;;;;7290204;19;20190;-88
2023/11/04 05:19:55;;;;;;;16.67;2.63;;;9.70;99.90;;;;;;7287778;19;20191;-88
2023/11/04 05:22:23;;;;;;;13.90;2.60;;;9.60;99.90;;;;;;7288958;19;20195;-89
2023/11/04 05:24:49;;;;;;;11.40;2.30;;;9.60;99.90;;;;;;7288967;19;20186;-88
2023/11/04 05:27:16;;;;;;;10.90;2.77;;;9.60;99.90;;;;;;7289486;19;20198;-88
2023/11/04 05:29:42;;;;;;;9.03;2.67;;;9.50;99.90;;;;;;7287963;19;20235;-89
2023/11/04 05:32:08;;;;;;;11.50;2.40;;;9.50;99.90;;;;;;7310426;19;20193;-88
2023/11/04 05:34:34;;;;;;;11.73;2.30;;;9.40;99.90;;;;;;7288212;19;20198;-89
2023/11/04 05:37:00;;;;;;;16.10;2.30;;;9.50;99.90;;;;;;7288912;19;20200;-88
2023/11/04 05:39:26;;;;;;;16.83;2.57;;;9.60;99.90;;;;;;7289507;19;20189;-88
2023/11/04 05:41:52;;;;;;;10.90;2.50;;;9.60;99.90;;;;;;7290161;19;20558;-88
2023/11/04 05:44:17;;;;;;;9.33;2.20;;;9.60;99.90;;;;;;7288535;19;20302;-89
2023/11/04 05:46:47;;;;;;;12.83;2.77;;;9.60;99.90;;;;;;7285958;19;20193;-89
2023/11/04 05:49:13;;;;;;;13.93;2.70;;;9.60;99.90;;;;;;7285570;19;20466;-88
2023/11/04 05:51:38;;;;;;;13.57;2.47;;;9.60;99.90;;;;;;7306830;19;20261;-88
2023/11/04 05:54:04;;;;;;;13.07;2.30;;;9.60;99.90;;;;;;7284597;19;20201;-88
2023/11/04 05:56:30;;;;;;;14.43;2.77;;;9.60;99.90;;;;;;7287774;19;20198;-88
2023/11/04 05:58:56;;;;;;;8.60;2.00;;;9.50;99.90;;;;;;7288360;19;20304;-87
2023/11/04 06:01:25;;;;;;;11.20;2.40;;;9.40;99.90;;;;;;7289272;19;20197;-88
2023/11/04 06:03:54;;;;;;;14.80;2.47;;;9.40;99.90;;;;;;7289354;19;20202;-88
2023/11/04 06:06:21;;;;;;;14.03;2.50;;;9.40;99.90;;;;;;7287853;19;20203;-88
2023/11/04 06:08:47;;;;;;;9.97;2.30;;;9.40;99.90;;;;;;7287458;19;20195;-88
2023/11/04 06:11:13;;;;;;;13.07;2.30;;;9.40;99.90;;;;;;7289543;19;20197;-88
2023/11/04 06:13:42;;;;;;;9.33;2.37;;;9.40;99.90;;;;;;7309247;19;20194;-87
2023/11/04 06:16:09;;;;;;;15.20;2.53;;;9.30;99.90;;;;;;7291195;19;20209;-88
2023/11/04 06:18:38;;;;;;;11.97;3.33;;;9.30;99.90;;;;;;7287503;19;20186;-88
2023/11/04 06:21:05;;;;;;;11.77;2.47;;;9.40;99.90;;;;;;7287112;19;20196;-88
2023/11/04 06:23:31;;;;;;;13.90;2.50;;;9.30;99.90;;;;;;7287217;19;20195;-88
2023/11/04 06:25:58;;;;;;;7.63;2.00;;;9.30;99.90;;;;;;7286313;19;20191;-88
2023/11/04 06:28:24;;;;;;;11.77;2.80;;;9.30;99.90;;;;;;7285709;19;20219;-89
2023/11/04 06:30:49;;;;;;;11.27;2.57;;;9.30;99.90;;;;;;7286533;19;20200;-88
2023/11/04 06:33:15;;;;;;;14.33;2.50;;;9.40;99.90;;;;;;7285748;19;20186;-88
2023/11/04 06:35:42;;;;;;;15.13;2.77;;;9.40;99.90;;;;;;7287583;19;20198;-88
2023/11/04 06:38:07;;;;;;;9.90;2.33;;;9.40;99.90;;;;;;7309207;19;20202;-87
2023/11/04 06:40:35;;;;;;;9.93;2.50;;;9.40;99.90;;;;;;7284727;19;20186;-88
2023/11/04 06:43:01;;;;;;;12.67;2.30;;;9.50;99.90;;;;;;7287798;19;20196;-88
2023/11/04 06:45:27;;;;;;;10.87;2.53;;;9.50;99.90;;;;;;7291418;19;20202;-88
2023/11/04 06:47:53;;;;;;;16.47;2.80;;;9.60;99.90;;;;;;7290997;19;20187;-88
2023/11/04 06:50:19;;;;;;;13.47;2.93;;;9.60;99.90;;;;;;7294258;19;20241;-89
2023/11/04 06:52:45;;;;;;;12.27;2.40;;;9.70;99.90;;;;;;7291357;19;20713;-89
2023/11/04 06:55:10;;;;;;;12.17;2.50;;;9.70;99.90;;;;;;7305209;19;20281;-90
2023/11/04 06:57:36;;;;;;;13.17;2.83;;;9.80;99.90;;;;;;7306196;19;20266;-89
2023/11/04 07:00:04;;;;;;;10.00;2.60;;;9.80;99.90;;;;;;7292872;19;20355;-89
2023/11/04 07:02:29;;;;;;;13.20;2.50;;;9.80;99.90;;;;;;7289018;19;20193;-89
2023/11/04 07:04:58;;;;;;;14.57;3.20;;;9.90;99.90;;;;;;7290692;19;20637;-89
2023/11/04 07:07:24;;;;;;;8.97;2.10;;;10.00;99.90;;;;;;7288480;19;20212;-88
2023/11/04 07:09:51;;;;;;;9.43;2.30;;;9.80;99.90;;;;;;7288378;19;20190;-88
2023/11/04 07:12:18;;;;;;;13.63;2.60;;;9.90;99.90;;;;;;7287259;19;20274;-89
2023/11/04 07:14:45;;;;;;;11.43;3.10;;;10.00;99.90;;;;;;7283496;19;20200;-89
2023/11/04 07:17:10;;;;;;;15.40;2.70;;;10.00;99.90;;;;;;7303202;19;20384;-90
2023/11/04 07:19:36;;;;;;;11.13;2.70;;;10.00;99.90;;;;;;7299726;19;20281;-89
2023/11/04 07:22:02;;;;;;;8.93;2.00;;;10.00;99.90;;;;;;7286772;19;20202;-89
2023/11/04 07:24:28;;;;;;;12.10;2.13;;;10.10;99.90;;;;;;7285845;19;20189;-89
2023/11/04 07:26:55;;;;;;;10.50;2.30;;;10.20;99.90;;;;;;7284842;19;20195;-89
2023/11/04 07:29:21;;;;;;;13.97;2.20;;;10.20;99.90;;;;;;7286328;19;20275;-88
2023/11/04 07:31:48;;;;;;;10.83;2.10;;;10.20;99.90;;;;;;7286076;19;20195;-89
2023/11/04 07:34:14;;;;;;;11.63;2.33;;;10.30;99.90;;;;;;7284554;19;20666;-89
2023/11/04 07:36:39;;;;;;;10.93;1.50;;;10.30;99.90;;;;;;7305888;19;20211;-89
2023/11/04 07:39:07;;;;;;;11.90;1.80;;;10.40;99.90;;;;;;7286859;19;20237;-89
2023/11/04 07:41:34;;;;;;;13.40;1.80;;;10.40;99.90;;;;;;7284215;19;20190;-89
2023/11/04 07:43:59;;;;;;;11.90;1.80;;;10.50;99.90;;;;;;7285603;19;20195;-89
2023/11/04 07:46:26;;;;;;;9.57;1.80;;;10.50;99.90;;;;;;7283863;19;20190;-89
2023/11/04 07:48:52;;;;;;;11.63;1.63;;;10.50;99.90;;;;;;7284806;19;20192;-88
2023/11/04 07:51:18;;;;;;;9.17;1.43;;;10.60;99.90;;;;;;7284485;19;20193;-91
2023/11/04 07:53:44;;;;;;;8.50;1.60;;;10.60;99.90;;;;;;7286408;19;20264;-90
2023/11/04 07:56:11;;;;;;;8.03;1.80;;;10.70;99.90;;;;;;7306631;19;20646;-90
2023/11/04 07:58:37;;;;;;;9.70;1.37;;;10.70;99.90;;;;;;7287359;19;20177;-89
2023/11/04 08:01:03;;;;;;;10.93;1.80;;;10.70;99.90;;;;;;7285282;19;20194;-88
2023/11/04 08:03:29;;;;;;;11.03;1.53;;;10.80;99.90;;;;;;7283109;19;20188;-88
2023/11/04 08:05:55;;;;;;;6.77;1.40;;;10.80;99.90;;;;;;7283325;19;20203;-88
2023/11/04 08:08:21;;;;;;;6.63;1.40;;;10.80;99.90;;;;;;7283554;19;20199;-88
2023/11/04 08:10:48;;;;;;;12.83;1.80;;;10.70;99.90;;;;;;7287244;19;20193;-89
2023/11/04 08:13:14;;;;;;;7.63;1.50;;;10.70;99.90;;;;;;7289235;19;20288;-88
2023/11/04 08:15:43;;;;;;;8.87;1.60;;;10.80;99.90;;;;;;7312468;19;20196;-89
2023/11/04 08:18:09;;;;;;;13.47;1.43;;;10.90;99.90;;;;;;7291431;19;20221;-87
2023/11/04 08:20:35;;;;;;;11.87;1.70;;;11.00;99.90;;;;;;7291101;19;20622;-87
2023/11/04 08:23:01;;;;;;;5.63;1.30;;;11.10;99.90;;;;;;7291372;19;20280;-87
2023/11/04 08:25:27;;;;;;;10.67;1.57;;;11.00;99.90;;;;;;7290297;19;20200;-87
2023/11/04 08:27:53;;;;;;;8.33;1.43;;;11.00;99.90;;;;;;7290788;19;20336;-89
2023/11/04 08:30:19;;;;;;;9.40;1.37;;;11.00;99.90;;;;;;7291287;19;20606;-88
2023/11/04 08:32:46;;;;;;;5.67;1.40;;;10.90;99.90;;;;;;7290506;19;20638;-89
2023/11/04 08:35:13;;;;;;;13.83;1.47;;;11.00;99.90;;;;;;7289672;19;20197;-89
2023/11/04 08:37:38;;;;;;;8.73;1.53;;;10.90;99.90;;;;;;7313272;19;20646;-89
2023/11/04 08:40:05;;;;;;;9.33;1.73;;;10.90;99.90;;;;;;7290313;19;20379;-88
2023/11/04 08:42:31;;;;;;;9.10;1.47;;;10.80;99.90;;;;;;7291785;19;20205;-88
2023/11/04 08:44:56;;;;;;;9.17;1.40;;;10.80;99.90;;;;;;7288965;19;21579;-88
2023/11/04 08:47:22;;;;;;;7.17;1.80;;;10.70;99.90;;;;;;7291044;19;20606;-89
2023/11/04 08:49:48;;;;;;;8.17;1.60;;;10.60;99.90;;;;;;7288414;19;20194;-88
2023/11/04 08:52:14;;;;;;;11.83;1.43;;;10.50;99.90;;;;;;7289689;19;20219;-89
2023/11/04 08:54:42;;;;;;;10.70;1.60;;;10.40;99.90;;;;;;7312205;19;20213;-88
2023/11/04 08:57:08;;;;;;;11.93;1.77;;;10.20;99.90;;;;;;7290787;19;20252;-88
2023/11/04 08:59:34;;;;;;;12.50;2.00;;;10.10;99.90;;;;;;7289255;19;20194;-89
2023/11/04 09:02:00;;;;;;;14.43;1.80;;;10.10;99.90;;;;;;7290523;19;20280;-89
2023/11/04 09:04:27;;;;;;;10.97;1.83;;;10.10;99.90;;;;;;7287698;19;20202;-89
2023/11/04 09:06:53;;;;;;;14.27;2.50;;;10.00;99.90;;;;;;7289997;19;20203;-89
2023/11/04 09:09:21;;;;;;;12.67;1.50;;;9.90;99.90;;;;;;7289655;19;20199;-89
2023/11/04 09:11:48;;;;;;;12.40;1.50;;;9.80;99.90;;;;;;7289500;19;20190;-89
2023/11/04 09:14:14;;;;;;;11.33;1.60;;;9.80;99.90;;;;;;7288162;19;20187;-88
2023/11/04 09:16:39;;;;;;;15.23;1.50;;;9.80;99.90;;;;;;7310932;19;20191;-88
2023/11/04 09:19:05;;;;;;;12.53;1.60;;;9.70;99.90;;;;;;7288237;19;20191;-88
2023/11/04 09:21:31;;;;;;;11.63;1.30;;;9.80;99.90;;;;;;7286141;19;20561;-88
2023/11/04 09:23:57;;;;;;;12.60;1.70;;;9.80;99.90;;;;;;7286984;19;20249;-88
2023/11/04 09:26:22;;;;;;;10.10;1.50;;;9.80;99.90;;;;;;7286818;19;20201;-88
2023/11/04 09:28:48;;;;;;;13.83;2.10;;;9.80;99.90;;;;;;7288670;19;20187;-88
2023/11/04 09:31:14;;;;;;;12.67;1.80;;;9.80;99.90;;;;;;7289527;19;20184;-88
2023/11/04 09:33:40;;;;;;;12.67;1.87;;;9.80;99.90;;;;;;7311851;19;20226;-86
2023/11/04 09:36:07;;;;;;;15.10;1.80;;;9.90;99.90;;;;;;7289669;19;20181;-86
2023/11/04 09:38:33;;;;;;;8.43;1.83;;;10.00;99.90;;;;;;7288562;19;20282;-87
2023/11/04 09:40:59;;;;;;;10.70;1.53;;;10.00;99.90;;;;;;7287589;19;20214;-89
2023/11/04 09:43:26;;;;;;;11.50;2.13;;;9.90;99.90;;;;;;7287112;19;20191;-89
2023/11/04 09:45:52;;;;;;;11.20;1.67;;;9.90;99.90;;;;;;7291110;19;20645;-89
2023/11/04 09:48:18;;;;;;;9.33;1.63;;;9.80;99.90;;;;;;7288874;19;20207;-90
2023/11/04 09:50:44;;;;;;;12.40;2.70;;;9.80;99.90;;;;;;7284678;19;20965;-89
2023/11/04 09:53:26;;;;;;;10.57;1.90;;;9.90;99.90;;;;;;7311966;19;20220;-89
2023/11/04 09:55:53;;;;;;;12.77;2.30;;;9.90;99.90;;;;;;7183880;19;2004569;-88
2023/11/04 09:58:21;;;;;;;11.53;1.67;;;10.00;99.90;;;;;;7288280;19;20195;-89
2023/11/04 10:00:47;;;;;;;8.87;1.87;;;10.00;99.90;;;;;;7289338;19;20214;-90
2023/11/04 10:03:13;;;;;;;13.93;2.10;;;10.10;99.90;;;;;;7287882;19;20195;-90
2023/11/04 10:05:39;;;;;;;11.10;2.20;;;10.10;99.90;;;;;;7308713;19;20187;-91
2023/11/04 10:08:05;;;;;;;9.27;2.00;;;10.10;99.90;;;;;;7287517;19;20203;-89
2023/11/04 10:10:33;;;;;;;10.53;1.93;;;10.10;99.90;;;;;;7287276;19;20201;-90
2023/11/04 10:12:59;;;;;;;9.40;1.53;;;10.10;99.90;;;;;;7287676;19;20651;-90
2023/11/04 10:15:27;;;;;;;9.40;2.47;;;10.10;99.90;;;;;;7285370;19;20192;-90
2023/11/04 10:17:54;;;;;;;7.40;1.93;;;10.10;99.90;;;;;;7286046;19;20195;-89
2023/11/04 10:20:22;;;;;;;12.30;2.37;;;10.10;99.90;;;;;;7284237;19;20280;-90
2023/11/04 10:22:54;;;;;;;9.07;1.50;;;10.10;99.90;;;;;;7279529;19;20195;-90
2023/11/04 10:25:23;;;;;;;9.73;2.17;;;10.10;99.90;;;;;;7283080;19;20194;-89
2023/11/04 10:28:24;;;;;;;11.27;2.10;;;10.10;99.90;;;;;;7292039;19;20188;-88
2023/11/04 10:30:57;;;;;;;9.00;2.50;;;10.20;99.90;;;;;;7176392;19;2004294;-89
2023/11/04 10:33:23;;;;;;;12.83;3.90;;;10.20;99.90;;;;;;7282749;19;20194;-90
2023/11/04 10:35:50;;;;;;;11.83;3.50;;;10.10;99.90;;;;;;7283908;19;20237;-90
2023/11/04 10:38:17;;;;;;;7.90;2.30;;;10.10;99.90;;;;;;7284072;19;20739;-90
2023/11/04 10:40:43;;;;;;;9.67;2.27;;;10.00;99.90;;;;;;7283943;19;20562;-90
2023/11/04 10:43:15;;;;;;;6.00;2.13;;;10.00;99.90;;;;;;7306262;19;20194;-91
2023/11/04 10:46:02;;;;;;;6.93;1.70;;;10.10;99.90;;;;;;7277529;19;20228;-90
2023/11/04 10:49:15;;;;;;;7.90;1.47;;;10.10;99.90;;;;;;7284312;19;20223;-90
2023/11/04 10:51:57;;;;;;;5.07;0.90;;;10.10;99.90;;;;;;7177883;19;2004437;-89
2023/11/04 10:54:32;;;;;;;6.13;0.90;;;10.00;99.90;;;;;;7283583;19;20193;-90
2023/11/04 10:57:19;;;;;;;7.87;1.00;;;10.00;99.90;;;;;;7283304;19;20190;-90
2023/11/04 10:59:54;;;;;;;3.87;0.80;;;10.00;99.90;;;;;;7278628;19;20202;-90
2023/11/04 11:02:21;;;;;;;5.03;0.87;;;10.10;99.90;;;;;;7281403;19;20261;-90
2023/11/04 11:04:47;;;;;;;2.63;0.60;;;10.20;99.90;;;;;;7282117;19;20304;-90
2023/11/04 11:07:18;;;;;;;3.73;0.70;;;10.30;99.90;;;;;;7281797;19;20198;-91
2023/11/04 11:09:45;;;;;;;5.63;0.90;;;10.30;99.90;;;;;;7276051;19;20215;-90
2023/11/04 11:12:25;;;;;;;2.33;0.60;;;10.40;99.90;;;;;;7301088;19;20666;-89
2023/11/04 11:14:57;;;;;;;3.83;0.80;;;10.30;99.90;;;;;;7282076;19;20229;-89
2023/11/04 11:17:32;;;;;;;2.97;0.80;;;10.30;99.90;;;;;;7279897;19;20191;-89
2023/11/04 11:19:58;;;;;;;6.67;0.73;;;10.10;99.90;;;;;;7282624;19;20761;-89
2023/11/04 11:22:30;;;;;;;2.97;0.60;;;10.00;99.90;;;;;;7281748;19;20221;-89
2023/11/04 11:24:57;;;;;;;1.00;0.40;;;9.90;99.90;;;;;;7281444;19;20257;-90
2023/11/04 11:27:24;;;;;;;2.27;0.43;;;9.90;99.90;;;;;;7281034;19;20258;-89
2023/11/04 11:29:56;;;;;;;2.40;0.63;;;9.90;99.90;;;;;;7280428;19;20185;-90
2023/11/04 11:32:32;;;;;;;2.60;0.63;;;10.00;99.90;;;;;;7281670;19;20206;-90
2023/11/04 11:34:58;;;;;;;2.83;0.50;;;10.00;99.90;;;;;;7282161;19;20186;-90
2023/11/04 11:37:26;;;;;;;3.00;0.60;;;10.00;99.90;;;;;;7280705;19;20189;-90
2023/11/04 11:39:52;;;;;;;3.53;0.60;;;10.10;99.90;;;;;;7280856;19;20178;-91
2023/11/04 11:42:27;;;;;;;2.70;0.70;;;10.10;99.90;;;;;;7280340;19;20210;-90
2023/11/04 11:44:56;;;;;;;1.27;0.30;;;10.10;99.90;;;;;;7279493;19;20530;-90
2023/11/04 11:47:22;;;;;;;0.77;0.60;;;10.20;99.90;;;;;;7280664;19;20207;-90
2023/11/04 11:49:55;;;;;;;3.63;1.37;;;10.30;99.90;;;;;;7284716;19;20202;-90
2023/11/04 11:52:21;;;;;;;2.60;0.70;;;10.30;99.90;;;;;;7286880;19;20250;-89
2023/11/04 11:54:50;;;;;;;1.27;0.60;;;10.40;99.90;;;;;;7285388;19;20295;-89
2023/11/04 11:57:16;;;;;;;2.80;0.60;;;10.40;99.90;;;;;;7283233;19;20195;-88
2023/11/04 11:59:41;;;;;;;4.00;0.60;;;10.60;99.90;;;;;;7315416;19;20239;-90
2023/11/04 12:02:10;;;;;;;1.10;0.50;;;10.70;99.90;;;;;;7296029;19;20203;-90
2023/11/04 12:04:36;;;;;;;1.53;0.53;;;10.80;99.90;;;;;;7284391;19;20198;-89
2023/11/04 12:07:02;;;;;;;0.80;0.50;;;10.80;99.90;;;;;;7283835;19;20577;-90
2023/11/04 12:09:29;;;;;;;1.40;0.40;;;10.90;99.90;;;;;;7284394;19;20197;-90
2023/11/04 12:11:55;;;;;;;0.70;0.30;;;10.80;99.90;;;;;;7283662;19;20186;-90
2023/11/04 12:14:23;;;;;;;1.73;0.60;;;10.80;99.90;;;;;;7284674;19;20199;-90
2023/11/04 12:16:49;;;;;;;1.07;0.40;;;10.80;99.90;;;;;;7267881;19;20191;-91
2023/11/04 12:19:15;;;;;;;2.40;0.80;;;10.80;99.90;;;;;;7287426;19;20279;-89
2023/11/04 12:21:41;;;;;;;1.77;0.40;;;10.80;99.90;;;;;;7301186;19;20782;-88
2023/11/04 12:24:08;;;;;;;0.87;0.30;;;10.60;99.90;;;;;;7280380;19;20191;-88
2023/11/04 12:26:34;;;;;;;1.37;0.20;;;10.70;99.90;;;;;;7280969;19;20202;-88
2023/11/04 12:29:00;;;;;;;3.23;0.50;;;10.80;99.90;;;;;;7281678;19;20530;-89
2023/11/04 12:31:29;;;;;;;3.23;0.50;;;10.80;99.90;;;;;;7280234;19;20936;-89
2023/11/04 12:33:56;;;;;;;3.13;0.40;;;11.00;99.90;;;;;;7281282;19;20194;-90
2023/11/04 12:36:25;;;;;;;2.63;0.70;;;11.10;99.90;;;;;;7281011;19;20198;-90
2023/11/04 12:38:51;;;;;;;0.67;0.40;;;11.00;99.90;;;;;;7278588;19;20197;-90
2023/11/04 12:41:18;;;;;;;1.73;0.40;;;11.10;99.90;;;;;;7282024;19;20268;-90